createdAt,value
2022-09-01T00:00:56.342Z,0.50
2022-09-01T00:03:26.702Z,0.37
2022-09-01T00:05:57.112Z,0.30
2022-09-01T00:08:26.597Z,0.30
2022-09-01T00:10:56.103Z,0.37
2022-09-01T00:13:26.116Z,0.40
2022-09-01T00:15:55.804Z,0.40
2022-09-01T00:18:25.371Z,0.40
2022-09-01T00:20:56.523Z,0.40
2022-09-01T00:23:27.541Z,0.40
2022-09-01T00:25:58.215Z,0.40
2022-09-01T00:28:30.355Z,0.50
2022-09-01T00:30:59.157Z,0.50
2022-09-01T00:33:28.955Z,0.20
2022-09-01T00:35:58.470Z,0.37
2022-09-01T00:38:29.361Z,0.37
2022-09-01T00:41:00.735Z,0.63
2022-09-01T00:43:46.614Z,0.40
2022-09-01T00:46:20.757Z,0.70
2022-09-01T00:49:02.095Z,0.40
2022-09-01T00:51:34.104Z,0.60
2022-09-01T00:54:06.500Z,0.40
2022-09-01T00:56:39.519Z,0.40
2022-09-01T00:59:11.687Z,0.50
2022-09-01T01:01:41.580Z,0.20
2022-09-01T01:04:17.843Z,0.30
2022-09-01T01:06:53.247Z,0.30
2022-09-01T01:09:24.185Z,0.30
2022-09-01T01:11:57.626Z,0.50
2022-09-01T01:14:30.664Z,0.27
2022-09-01T01:17:01.979Z,0.40
2022-09-01T01:20:02.680Z,0.20
2022-09-01T01:22:59.965Z,0.40
2022-09-01T01:25:46.323Z,0.40
2022-09-01T01:28:35.700Z,0.70
2022-09-01T01:31:13.250Z,0.40
2022-09-01T01:33:50.243Z,0.50
2022-09-01T01:36:33.851Z,0.60
2022-09-01T01:39:10.025Z,0.43
2022-09-01T01:41:43.796Z,0.60
2022-09-01T01:44:16.584Z,0.50
2022-09-01T01:46:54.638Z,1.00
2022-09-01T01:49:29.007Z,0.60
2022-09-01T01:51:59.062Z,0.60
2022-09-01T01:54:31.480Z,0.90
2022-09-01T01:57:08.357Z,0.50
2022-09-01T01:59:39.566Z,0.50
2022-09-01T02:02:09.834Z,0.47
2022-09-01T02:04:40.839Z,0.50
2022-09-01T02:07:16.016Z,0.40
2022-09-01T02:09:47.421Z,0.33
2022-09-01T02:12:18.546Z,0.80
2022-09-01T02:14:48.633Z,0.40
2022-09-01T02:17:18.171Z,0.20
2022-09-01T02:19:48.508Z,0.40
2022-09-01T02:22:19.875Z,0.40
2022-09-01T02:24:51.012Z,0.20
2022-09-01T02:27:22.571Z,0.30
2022-09-01T02:29:54.053Z,0.53
2022-09-01T02:32:23.921Z,0.20
2022-09-01T02:34:58.573Z,0.40
2022-09-01T02:37:29.769Z,0.40
2022-09-01T02:39:59.632Z,0.40
2022-09-01T02:42:30.295Z,0.40
2022-09-01T02:44:59.790Z,0.30
2022-09-01T02:47:30.998Z,0.30
2022-09-01T02:50:01.114Z,0.60
2022-09-01T02:52:32.240Z,0.20
2022-09-01T02:55:03.003Z,0.60
2022-09-01T02:57:34.634Z,0.30
2022-09-01T03:00:11.925Z,0.40
2022-09-01T03:02:41.414Z,0.30
2022-09-01T03:05:11.752Z,0.30
2022-09-01T03:07:42.515Z,0.20
2022-09-01T03:10:12.007Z,0.30
2022-09-01T03:12:41.505Z,0.50
2022-09-01T03:15:13.335Z,0.30
2022-09-01T03:17:42.903Z,0.40
2022-09-01T03:20:12.477Z,0.40
2022-09-01T03:22:41.965Z,0.20
2022-09-01T03:25:11.596Z,0.30
2022-09-01T03:27:41.082Z,0.30
2022-09-01T03:30:12.022Z,0.30
2022-09-01T03:32:42.081Z,0.30
2022-09-01T03:35:12.910Z,0.30
2022-09-01T03:37:44.239Z,0.37
2022-09-01T03:40:17.535Z,0.37
2022-09-01T03:42:47.525Z,0.30
2022-09-01T03:45:19.337Z,0.20
2022-09-01T03:47:48.913Z,0.20
2022-09-01T03:50:22.491Z,0.30
2022-09-01T03:52:54.383Z,0.30
2022-09-01T03:55:30.980Z,0.23
2022-09-01T03:58:06.511Z,0.27
2022-09-01T04:00:49.229Z,0.30
2022-09-01T04:03:20.389Z,0.27
2022-09-01T04:05:54.098Z,0.30
2022-09-01T04:08:26.761Z,0.40
2022-09-01T04:11:00.702Z,0.30
2022-09-01T04:13:40.925Z,0.20
2022-09-01T04:16:41.934Z,0.37
2022-09-01T04:19:23.364Z,0.40
2022-09-01T04:21:56.641Z,0.30
2022-09-01T04:24:28.939Z,0.30
2022-09-01T04:27:02.165Z,0.10
2022-09-01T04:29:33.372Z,0.30
2022-09-01T04:32:11.338Z,0.23
2022-09-01T04:34:41.680Z,0.30
2022-09-01T04:37:15.365Z,0.30
2022-09-01T04:39:51.318Z,0.50
2022-09-01T04:42:21.802Z,0.30
2022-09-01T04:44:53.722Z,0.20
2022-09-01T04:47:24.832Z,0.23
2022-09-01T04:49:58.539Z,0.37
2022-09-01T04:52:28.968Z,0.20
2022-09-01T04:54:58.654Z,0.20
2022-09-01T04:57:29.314Z,0.20
2022-09-01T04:59:59.789Z,0.20
2022-09-01T05:02:29.311Z,0.30
2022-09-01T05:04:58.796Z,0.30
2022-09-01T05:07:28.729Z,0.30
2022-09-01T05:10:01.471Z,0.40
2022-09-01T05:12:31.176Z,0.40
2022-09-01T05:15:02.306Z,0.30
2022-09-01T05:17:31.795Z,0.20
2022-09-01T05:20:01.857Z,0.20
2022-09-01T05:22:31.617Z,0.40
2022-09-01T05:25:06.854Z,0.20
2022-09-01T05:27:36.612Z,0.37
2022-09-01T05:30:08.614Z,0.40
2022-09-01T05:32:39.986Z,0.23
2022-09-01T05:35:10.198Z,0.20
2022-09-01T05:37:39.925Z,0.27
2022-09-01T05:40:13.549Z,0.53
2022-09-01T05:42:44.828Z,0.40
2022-09-01T05:45:15.259Z,0.30
2022-09-01T05:47:46.643Z,0.30
2022-09-01T05:50:17.853Z,0.40
2022-09-01T05:52:47.895Z,0.30
2022-09-01T05:55:17.709Z,0.30
2022-09-01T05:57:48.180Z,0.30
2022-09-01T06:00:20.307Z,0.20
2022-09-01T06:02:49.989Z,0.50
2022-09-01T06:05:19.578Z,0.40
2022-09-01T06:07:49.339Z,0.30
2022-09-01T06:10:19.018Z,0.33
2022-09-01T06:12:50.146Z,0.47
2022-09-01T06:15:22.952Z,0.30
2022-09-01T06:17:52.710Z,0.57
2022-09-01T06:20:23.019Z,0.53
2022-09-01T06:22:56.010Z,0.50
2022-09-01T06:25:27.173Z,0.40
2022-09-01T06:27:56.938Z,0.43
2022-09-01T06:30:26.570Z,0.63
2022-09-01T06:32:57.141Z,0.93
2022-09-01T06:35:28.287Z,0.70
2022-09-01T06:37:58.809Z,0.80
2022-09-01T06:40:28.638Z,0.70
2022-09-01T06:42:59.849Z,0.50
2022-09-01T06:45:32.698Z,0.47
2022-09-01T06:48:03.296Z,0.70
2022-09-01T06:55:43.709Z,0.60
2022-09-01T06:58:15.216Z,0.70
2022-09-01T07:00:45.458Z,0.60
2022-09-01T07:03:18.113Z,0.53
2022-09-01T07:06:00.887Z,0.60
2022-09-01T07:08:23.584Z,0.80
2022-09-01T07:13:25.684Z,0.70
2022-09-01T07:18:31.118Z,0.47
2022-09-01T07:21:04.519Z,0.60
2022-09-01T07:23:46.284Z,0.70
2022-09-01T07:26:08.275Z,0.67
2022-09-01T07:28:38.716Z,0.60
2022-09-01T07:33:44.425Z,0.93
2022-09-01T07:36:28.090Z,0.80
2022-09-01T07:39:48.815Z,0.40
2022-09-01T07:43:46.221Z,0.60
2022-09-01T07:51:39.848Z,0.50
2022-09-01T07:53:55.688Z,0.60
2022-09-01T07:56:27.097Z,0.40
2022-09-01T07:58:57.938Z,0.60
2022-09-01T08:01:29.510Z,0.40
2022-09-01T08:04:04.721Z,0.50
2022-09-01T08:06:39.296Z,0.70
2022-09-01T08:09:07.518Z,0.50
2022-09-01T08:14:10.256Z,0.63
2022-09-01T08:16:51.888Z,0.40
2022-09-01T08:19:18.875Z,0.40
2022-09-01T08:21:42.871Z,0.40
2022-09-01T08:24:12.353Z,0.50
2022-09-01T08:26:42.203Z,0.50
2022-09-01T08:29:11.698Z,0.40
2022-09-01T08:31:41.267Z,0.60
2022-09-01T08:34:12.401Z,0.50
2022-09-01T08:36:41.892Z,0.40
2022-09-01T08:39:11.383Z,0.40
2022-09-01T08:41:58.643Z,0.50
2022-09-01T08:44:46.185Z,0.33
2022-09-01T08:47:28.758Z,0.40
2022-09-01T08:49:52.133Z,0.43
2022-09-01T08:52:29.285Z,0.60
2022-09-01T08:55:05.969Z,0.70
2022-09-01T08:57:42.996Z,0.50
2022-09-01T09:00:18.200Z,0.40
2022-09-01T09:03:12.099Z,0.40
2022-09-01T09:06:07.765Z,0.50
2022-09-01T09:08:54.366Z,0.50
2022-09-01T09:11:47.753Z,0.43
2022-09-01T09:14:48.383Z,0.50
2022-09-01T09:17:22.831Z,0.60
2022-09-01T09:19:52.652Z,0.50
2022-09-01T09:22:23.079Z,0.47
2022-09-01T09:25:17.521Z,0.40
2022-09-01T09:27:50.345Z,0.60
2022-09-01T09:30:28.958Z,0.50
2022-09-01T09:35:40.319Z,0.50
2022-09-01T09:38:22.638Z,0.40
2022-09-01T09:41:27.177Z,0.50
2022-09-01T09:43:47.516Z,0.63
2022-09-01T09:46:47.688Z,0.60
2022-09-01T09:49:34.668Z,0.30
2022-09-01T09:52:12.472Z,0.30
2022-09-01T09:55:01.359Z,0.30
2022-09-01T09:57:33.349Z,0.40
2022-09-01T10:00:11.384Z,0.30
2022-09-01T10:02:45.575Z,0.30
2022-09-01T10:05:34.619Z,0.47
2022-09-01T10:08:06.436Z,0.53
2022-09-01T10:10:57.712Z,0.30
2022-09-01T10:13:26.709Z,0.27
2022-09-01T10:16:00.963Z,0.30
2022-09-01T10:18:42.382Z,0.30
2022-09-01T10:21:21.624Z,0.40
2022-09-01T10:23:51.253Z,0.60
2022-09-01T10:26:39.856Z,0.30
2022-09-01T10:29:27.012Z,0.40
2022-09-01T10:32:21.237Z,0.40
2022-09-01T10:34:34.198Z,0.33
2022-09-01T10:37:10.223Z,0.47
2022-09-01T10:39:43.061Z,0.40
2022-09-01T10:42:15.043Z,0.50
2022-09-01T10:45:03.537Z,0.30
2022-09-01T10:47:38.016Z,0.30
2022-09-01T10:50:28.754Z,0.23
2022-09-01T10:53:04.968Z,0.40
2022-09-01T10:55:48.257Z,0.40
2022-09-01T11:01:49.547Z,0.33
2022-09-01T11:04:25.465Z,0.30
2022-09-01T11:07:13.904Z,0.20
2022-09-01T11:09:49.138Z,0.40
2022-09-01T11:12:52.127Z,0.27
2022-09-01T11:15:38.379Z,0.20
2022-09-01T11:18:19.431Z,0.37
2022-09-01T11:20:50.959Z,0.50
2022-09-01T11:23:34.395Z,0.40
2022-09-01T11:26:20.913Z,0.20
2022-09-01T11:28:45.274Z,0.30
2022-09-01T11:31:31.304Z,0.30
2022-09-01T11:34:20.056Z,0.43
2022-09-01T11:37:03.563Z,0.40
2022-09-01T11:39:37.977Z,0.50
2022-09-01T11:42:26.677Z,0.60
2022-09-01T11:45:09.684Z,0.50
2022-09-01T11:47:44.212Z,0.30
2022-09-01T11:50:36.051Z,0.30
2022-09-01T11:53:12.923Z,0.30
2022-09-01T11:55:50.137Z,0.40
2022-09-01T11:58:37.521Z,0.47
2022-09-01T12:01:35.997Z,0.30
2022-09-01T12:04:28.595Z,0.30
2022-09-01T12:07:07.975Z,0.30
2022-09-01T12:09:48.265Z,0.17
2022-09-01T12:12:40.088Z,0.20
2022-09-01T12:15:26.213Z,0.30
2022-09-01T12:18:11.267Z,0.30
2022-09-01T12:20:41.218Z,0.20
2022-09-01T12:23:30.584Z,0.30
2022-09-01T12:26:04.936Z,0.30
2022-09-01T12:28:38.281Z,0.40
2022-09-01T12:31:15.157Z,0.30
2022-09-01T12:33:49.403Z,0.30
2022-09-01T12:36:38.759Z,0.40
2022-09-01T12:39:26.497Z,0.20
2022-09-01T12:42:40.960Z,0.20
2022-09-01T12:45:09.778Z,0.30
2022-09-01T12:47:48.495Z,0.27
2022-09-01T12:50:23.868Z,0.40
2022-09-01T12:52:59.498Z,0.20
2022-09-01T12:55:49.001Z,0.30
2022-09-01T12:58:09.673Z,0.30
2022-09-01T13:00:58.796Z,0.20
2022-09-01T13:03:29.546Z,0.17
2022-09-01T13:06:02.560Z,0.30
2022-09-01T13:08:36.045Z,0.40
2022-09-01T13:11:14.515Z,0.30
2022-09-01T13:13:44.003Z,0.30
2022-09-01T13:16:13.995Z,0.30
2022-09-01T13:21:17.352Z,0.30
2022-09-01T13:23:46.843Z,0.20
2022-09-01T13:26:16.338Z,0.30
2022-09-01T13:28:47.661Z,0.37
2022-09-01T13:31:33.950Z,0.30
2022-09-01T13:38:51.075Z,0.40
2022-09-01T13:41:22.477Z,0.20
2022-09-01T13:43:52.337Z,0.40
2022-09-01T13:46:21.831Z,0.30
2022-09-01T13:49:42.163Z,0.40
2022-09-01T13:51:29.664Z,0.30
2022-09-01T13:53:59.153Z,0.30
2022-09-01T13:56:28.651Z,0.30
2022-09-01T13:58:58.136Z,0.20
2022-09-01T14:01:28.011Z,0.20
2022-09-01T14:04:00.625Z,0.30
2022-09-01T14:06:29.897Z,0.30
2022-09-01T14:08:59.383Z,0.40
2022-09-01T14:11:29.533Z,0.27
2022-09-01T14:13:59.380Z,0.30
2022-09-01T14:16:29.125Z,0.30
2022-09-01T14:18:59.855Z,0.10
2022-09-01T14:21:29.358Z,0.27
2022-09-01T14:24:00.188Z,0.40
2022-09-01T14:26:29.774Z,0.30
2022-09-01T14:29:00.912Z,0.40
2022-09-01T14:31:32.011Z,0.40
2022-09-01T14:34:01.504Z,0.30
2022-09-01T14:36:31.423Z,0.40
2022-09-01T14:39:00.897Z,0.40
2022-09-01T14:41:31.764Z,0.30
2022-09-01T14:44:03.624Z,0.30
2022-09-01T14:46:37.218Z,0.20
2022-09-01T14:49:07.882Z,0.40
2022-09-01T14:54:09.813Z,0.20
2022-09-01T14:56:40.250Z,0.50
2022-09-01T14:59:10.996Z,0.30
2022-09-01T15:01:40.562Z,0.30
2022-09-01T15:04:10.429Z,0.30
2022-09-01T15:06:39.931Z,0.30
2022-09-01T15:09:09.493Z,0.30
2022-09-01T15:11:39.681Z,0.47
2022-09-01T15:14:11.228Z,0.30
2022-09-01T15:16:42.016Z,0.10
2022-09-01T15:19:14.367Z,0.40
2022-09-01T15:21:46.573Z,0.30
2022-09-01T15:24:17.162Z,0.30
2022-09-01T15:26:47.310Z,0.20
2022-09-01T15:29:16.789Z,0.30
2022-09-01T15:31:47.077Z,0.20
2022-09-01T15:34:18.332Z,0.20
2022-09-01T15:36:47.885Z,0.40
2022-09-01T15:39:17.372Z,0.30
2022-09-01T15:41:47.018Z,0.20
2022-09-01T15:44:16.508Z,0.20
2022-09-01T15:46:46.171Z,0.20
2022-09-01T15:49:17.695Z,0.30
2022-09-01T15:51:47.739Z,0.20
2022-09-01T15:54:20.980Z,0.50
2022-09-01T15:56:50.525Z,0.33
2022-09-01T15:59:20.361Z,0.30
2022-09-01T16:01:51.408Z,0.30
2022-09-01T16:04:25.412Z,0.20
2022-09-01T16:06:52.742Z,0.30
2022-09-01T16:09:22.222Z,0.23
2022-09-01T16:11:51.726Z,0.10
2022-09-01T16:14:22.655Z,0.30
2022-09-01T16:17:08.727Z,0.30
2022-09-01T16:20:12.176Z,0.30
2022-09-01T16:22:46.355Z,0.30
2022-09-01T16:25:20.585Z,0.40
2022-09-01T16:27:50.371Z,0.30
2022-09-01T16:30:30.437Z,0.10
2022-09-01T16:33:04.414Z,0.20
2022-09-01T16:35:47.880Z,0.20
2022-09-01T16:38:45.341Z,0.40
2022-09-01T16:41:44.896Z,0.50
2022-09-01T16:44:40.276Z,0.47
2022-09-01T16:47:34.990Z,0.37
2022-09-01T16:50:26.703Z,0.23
2022-09-01T16:53:20.195Z,0.23
2022-09-01T16:56:10.781Z,0.40
2022-09-01T16:59:06.566Z,0.37
2022-09-01T17:01:56.004Z,0.20
2022-09-01T17:04:44.926Z,0.20
2022-09-01T17:07:34.326Z,0.20
2022-09-01T17:10:30.255Z,0.40
2022-09-01T17:13:03.780Z,0.30
2022-09-01T17:15:42.330Z,0.20
2022-09-01T17:18:35.066Z,0.30
2022-09-01T17:21:24.196Z,0.23
2022-09-01T17:23:58.483Z,0.40
2022-09-01T17:26:31.054Z,0.30
2022-09-01T17:29:29.136Z,0.20
2022-09-01T17:32:48.166Z,0.23
2022-09-01T17:36:10.680Z,0.20
2022-09-01T17:39:10.800Z,0.17
2022-09-01T17:42:00.467Z,0.20
2022-09-01T17:44:39.390Z,0.20
2022-09-01T17:47:35.827Z,0.10
2022-09-01T17:50:28.013Z,0.20
2022-09-01T17:53:32.745Z,0.30
2022-09-01T17:56:37.245Z,0.40
2022-09-01T17:59:37.895Z,0.20
2022-09-01T18:02:17.340Z,0.30
2022-09-01T18:05:12.937Z,0.20
2022-09-01T18:07:52.842Z,0.20
2022-09-01T18:11:01.189Z,0.20
2022-09-01T18:13:53.580Z,0.20
2022-09-01T18:16:21.175Z,0.23
2022-09-01T18:18:53.179Z,0.17
2022-09-01T18:21:32.329Z,0.30
2022-09-01T18:24:14.037Z,0.20
2022-09-01T18:26:53.132Z,0.30
2022-09-01T18:29:25.612Z,0.17
2022-09-01T18:32:21.026Z,0.20
2022-09-01T18:35:11.735Z,0.30
2022-09-01T18:37:54.445Z,0.20
2022-09-01T18:40:34.634Z,0.20
2022-09-01T18:43:22.877Z,0.30
2022-09-01T18:46:20.696Z,0.20
2022-09-01T18:49:37.425Z,0.40
2022-09-01T18:52:12.498Z,0.20
2022-09-01T18:55:18.776Z,0.23
2022-09-01T18:57:55.358Z,0.20
2022-09-01T19:00:32.303Z,0.20
2022-09-01T19:03:17.604Z,0.23
2022-09-01T19:06:09.870Z,0.20
2022-09-01T19:09:03.226Z,0.30
2022-09-01T19:11:58.167Z,0.20
2022-09-01T19:14:43.767Z,0.40
2022-09-01T19:17:20.848Z,0.20
2022-09-01T19:20:11.248Z,0.30
2022-09-01T19:22:45.359Z,0.20
2022-09-01T19:25:36.532Z,0.20
2022-09-01T19:28:27.298Z,0.20
2022-09-01T19:31:29.895Z,0.20
2022-09-01T19:34:10.630Z,0.20
2022-09-01T19:36:52.606Z,0.10
2022-09-01T19:39:29.561Z,0.30
2022-09-01T19:42:15.820Z,0.20
2022-09-01T19:44:51.449Z,0.20
2022-09-01T19:47:34.068Z,0.30
2022-09-01T19:50:32.044Z,0.40
2022-09-01T19:53:14.988Z,0.27
2022-09-01T19:56:01.002Z,0.33
2022-09-01T19:58:59.329Z,0.40
2022-09-01T20:01:42.908Z,0.50
2022-09-01T20:04:23.353Z,0.40
2022-09-01T20:06:57.656Z,0.30
2022-09-01T20:10:00.856Z,0.40
2022-09-01T20:12:43.856Z,0.30
2022-09-01T20:15:20.455Z,0.30
2022-09-01T20:17:57.055Z,0.30
2022-09-01T20:20:45.895Z,0.23
2022-09-01T20:23:46.434Z,0.20
2022-09-01T20:26:24.874Z,0.27
2022-09-01T20:29:13.642Z,0.40
2022-09-01T20:31:49.246Z,0.60
2022-09-01T20:34:44.790Z,0.53
2022-09-01T20:37:33.460Z,0.70
2022-09-01T20:40:30.272Z,0.83
2022-09-01T20:43:17.937Z,0.60
2022-09-01T20:45:47.682Z,0.70
2022-09-01T20:48:24.332Z,0.50
2022-09-01T20:51:16.708Z,0.50
2022-09-01T20:54:25.548Z,0.50
2022-09-01T20:57:02.441Z,0.53
2022-09-01T20:59:56.532Z,0.60
2022-09-01T21:02:54.895Z,0.60
2022-09-01T21:05:41.209Z,0.40
2022-09-01T21:08:27.150Z,0.67
2022-09-01T21:11:06.614Z,0.73
2022-09-01T21:14:04.674Z,0.83
2022-09-01T21:17:08.376Z,0.77
2022-09-01T21:20:19.416Z,0.80
2022-09-01T21:22:50.546Z,0.80
2022-09-01T21:25:20.063Z,0.80
2022-09-01T21:27:59.592Z,0.60
2022-09-01T21:30:35.536Z,0.80
2022-09-01T21:33:06.356Z,1.20
2022-09-01T21:35:35.874Z,1.00
2022-09-01T21:38:05.393Z,0.67
2022-09-01T21:40:35.984Z,0.90
2022-09-01T21:43:10.122Z,1.10
2022-09-01T21:45:40.007Z,0.80
2022-09-01T21:48:09.865Z,0.90
2022-09-01T21:50:40.573Z,0.83
2022-09-01T21:53:14.003Z,0.80
2022-09-01T21:55:43.769Z,0.70
2022-09-01T21:58:13.516Z,0.60
2022-09-01T22:00:44.516Z,0.60
2022-09-01T22:03:14.698Z,0.83
2022-09-01T22:05:45.431Z,0.60
2022-09-01T22:08:17.252Z,0.70
2022-09-01T22:10:51.987Z,0.60
2022-09-01T22:13:24.944Z,0.53
2022-09-01T22:15:55.933Z,0.57
2022-09-01T22:18:25.520Z,0.70
2022-09-01T22:21:08.719Z,0.60
2022-09-01T22:23:39.137Z,0.30
2022-09-01T22:26:12.491Z,0.50
2022-09-01T22:28:40.395Z,0.53
2022-09-01T22:31:17.077Z,0.40
2022-09-01T22:33:47.001Z,0.50
2022-09-01T22:36:30.535Z,0.50
2022-09-01T22:39:00.961Z,0.50
2022-09-01T22:41:33.237Z,0.50
2022-09-01T22:44:04.236Z,0.70
2022-09-01T22:46:36.057Z,0.40
2022-09-01T22:49:06.754Z,0.47
2022-09-01T22:51:39.660Z,0.40
2022-09-01T22:54:10.280Z,0.50
2022-09-01T22:56:42.467Z,0.47
2022-09-01T22:59:15.702Z,0.60
2022-09-01T23:01:47.898Z,0.50
2022-09-01T23:04:18.602Z,0.40
2022-09-01T23:06:52.614Z,0.40
2022-09-01T23:09:22.828Z,0.33
2022-09-01T23:11:52.503Z,0.40
2022-09-01T23:14:21.999Z,0.60
2022-09-01T23:16:52.768Z,0.50
2022-09-01T23:19:25.417Z,0.33
2022-09-01T23:21:55.361Z,0.50
2022-09-01T23:24:25.206Z,0.20
2022-09-01T23:26:54.729Z,0.33
2022-09-01T23:29:25.302Z,0.30
2022-09-01T23:31:54.931Z,0.30
2022-09-01T23:34:24.651Z,0.40
2022-09-01T23:36:54.151Z,0.30
2022-09-01T23:39:23.638Z,0.40
2022-09-01T23:41:53.142Z,0.20
2022-09-01T23:44:23.608Z,0.40
2022-09-01T23:46:53.183Z,0.60
2022-09-01T23:49:22.692Z,0.40
2022-09-01T23:51:55.274Z,0.30
2022-09-01T23:54:24.932Z,0.30
2022-09-01T23:56:54.518Z,0.30
2022-09-01T23:59:27.451Z,0.60
